HRHO2: North Canadian River

                                SHEF ID:       HRHO2     North Canadian River near Harrah
STATION TYPE:
Regulating: Stage = 15.00, Flow = 8563

STAGE RIV-FLOW WTR-TEMP DIS-OXY PH CONDUCT BAT-LOAD
ft cfs F mg/l su umho/cm volt
Ccp-Rev Ccp-Rev Ccp-Rev Ccp-Rev Ccp-Rev Ccp-Rev Ccp-Rev
(America/Chicago)
08/25 00:00 2.91 78 84.36 2.31 9.17 934 11.90
08/25 01:00 2.90 76 83.70 3.35 9.07 817 11.90
08/25 02:00 2.90 76 82.92 2.16 9.04 931 11.89
08/25 03:00 2.90 76 82.24 3.35 8.95 823 11.90
08/25 04:00 2.89 74 81.50 1.71 8.90 939 11.90
08/25 05:00 2.90 76 80.87 3.14 8.79 830 11.89
08/25 06:00 2.90 76 80.22 2.11 8.76 942 11.88
08/25 07:00 2.91 78 79.77 3.23 8.72 824 11.87
08/25 08:00 2.92 80 79.79 3.74 8.78 937 11.87
08/25 09:00 2.93 81 80.89 6.55 8.90 805 11.91
08/25 10:00 2.93 81 82.78 7.46 9.06 930 11.98
08/25 11:00 2.94 83 85.32 10.74 9.17 821 12.32
08/25 12:00 2.93 81 88.59 10.48 9.30 907 12.47
08/25 13:00 2.93 81 91.53 14.15 9.41 797 12.91
08/25 14:00 2.92 80 94.10 12.04 9.55 881 12.66
08/25 15:00 2.90 76 95.05 15.28 9.64 804 12.78
08/25 16:00 2.89 74 94.80 12.40 9.75 885 12.81
08/25 17:00 2.89 74 93.87 13.88 9.78 804 12.61
08/25 18:00 2.89 74 91.71 6.39 9.79 872 12.60
08/25 19:00 2.89 74 89.82 8.34 9.66 802 12.45
08/25 20:00 2.88 73 88.36 5.85 9.55 862 12.13
08/25 21:00 2.87 71 87.35 4.15 9.41 781 11.96
08/25 22:00 2.86 69 86.34 3.37 9.33 866 11.89
08/25 23:00 2.87 71 85.87 2.83 9.27 866 11.89
Data processed at Wed 26Aug2026 04:25 GMT

NOTICE: If you are parsing this page

Please convert to using our Data API. Starting early 2026 we will be migrating to: https://water.usace.army.mil with modern pages rendered in JavaScript. When this migration completes you will no longer be able to scrape this page! CWMSDataAPI (CDA)

Timeseries IDs (TSIDs)

TSIDs used from left to right in the data table
HARR.Stage.Inst.1Hour.0.Ccp-Rev
HARR.Flow.Inst.1Hour.0.Ccp-Rev
HARR.Temp-Water.Inst.1Hour.0.Ccp-Rev
HARR.Conc-DO.Inst.1Hour.0.Ccp-Rev
HARR.pH.Inst.1Hour.0.Ccp-Rev
HARR.Cond-Water.Inst.1Hour.0.Ccp-Rev
HARR.Volt-Battery Load.Inst.1Hour.0.Ccp-Rev

                            

All information presented herein is the property of the government of the United States of America and may be revised or deleted at any time without prior notice. Dissemination of this information without the expressed written consent of the Public Affairs Office, Tulsa District U.S. Army Corps of Engineers is strictly prohibited. These data are gathered electronically and, as presented, have NOT undergone any form of quality control. These data are NOT guaranteed to be valid or correct.